sensor_id;sensor_type;location;lat;lon;timestamp;temperature;humidity
13462;DHT22;6803;45.264;5.468;2023-03-08T00:00:55;2.50;99.90
13462;DHT22;6803;45.264;5.468;2023-03-08T00:03:26;2.20;99.90
13462;DHT22;6803;45.264;5.468;2023-03-08T00:05:57;2.10;99.90
13462;DHT22;6803;45.264;5.468;2023-03-08T00:08:29;2.10;99.90
13462;DHT22;6803;45.264;5.468;2023-03-08T00:11:02;2.10;99.90
13462;DHT22;6803;45.264;5.468;2023-03-08T00:13:33;2.10;99.90
13462;DHT22;6803;45.264;5.468;2023-03-08T00:16:07;2.10;99.90
13462;DHT22;6803;45.264;5.468;2023-03-08T00:18:39;2.00;99.90
13462;DHT22;6803;45.264;5.468;2023-03-08T00:21:12;2.10;99.90
13462;DHT22;6803;45.264;5.468;2023-03-08T00:23:43;2.00;99.90
13462;DHT22;6803;45.264;5.468;2023-03-08T00:26:15;2.00;99.90
13462;DHT22;6803;45.264;5.468;2023-03-08T00:28:46;2.00;99.90
13462;DHT22;6803;45.264;5.468;2023-03-08T00:31:18;2.00;99.90
13462;DHT22;6803;45.264;5.468;2023-03-08T00:33:52;1.90;99.90
13462;DHT22;6803;45.264;5.468;2023-03-08T00:36:23;2.00;99.90
13462;DHT22;6803;45.264;5.468;2023-03-08T00:38:56;2.10;99.90
13462;DHT22;6803;45.264;5.468;2023-03-08T00:41:27;2.00;99.90
13462;DHT22;6803;45.264;5.468;2023-03-08T00:43:59;1.80;99.90
13462;DHT22;6803;45.264;5.468;2023-03-08T00:46:30;1.50;99.90
13462;DHT22;6803;45.264;5.468;2023-03-08T00:49:01;1.40;99.90
13462;DHT22;6803;45.264;5.468;2023-03-08T00:51:33;1.40;99.90
13462;DHT22;6803;45.264;5.468;2023-03-08T00:54:05;1.40;99.90
13462;DHT22;6803;45.264;5.468;2023-03-08T00:56:37;1.40;99.90
13462;DHT22;6803;45.264;5.468;2023-03-08T00:59:08;1.40;99.90
13462;DHT22;6803;45.264;5.468;2023-03-08T01:01:39;1.50;99.90
13462;DHT22;6803;45.264;5.468;2023-03-08T01:04:11;1.50;99.90
13462;DHT22;6803;45.264;5.468;2023-03-08T01:06:43;1.60;99.90
13462;DHT22;6803;45.264;5.468;2023-03-08T01:09:15;1.70;99.90
13462;DHT22;6803;45.264;5.468;2023-03-08T01:11:46;2.00;99.90
13462;DHT22;6803;45.264;5.468;2023-03-08T01:14:17;1.50;99.90
13462;DHT22;6803;45.264;5.468;2023-03-08T01:16:48;1.20;99.90
13462;DHT22;6803;45.264;5.468;2023-03-08T01:19:20;1.30;99.90
13462;DHT22;6803;45.264;5.468;2023-03-08T01:21:51;1.40;99.90
13462;DHT22;6803;45.264;5.468;2023-03-08T01:24:23;1.30;99.90
13462;DHT22;6803;45.264;5.468;2023-03-08T01:26:54;1.40;99.90
13462;DHT22;6803;45.264;5.468;2023-03-08T01:29:27;1.40;99.90
13462;DHT22;6803;45.264;5.468;2023-03-08T01:31:59;1.40;99.90
13462;DHT22;6803;45.264;5.468;2023-03-08T01:34:30;1.20;99.90
13462;DHT22;6803;45.264;5.468;2023-03-08T01:37:02;1.40;99.90
13462;DHT22;6803;45.264;5.468;2023-03-08T01:39:34;1.40;99.90
13462;DHT22;6803;45.264;5.468;2023-03-08T01:42:06;1.10;99.90
13462;DHT22;6803;45.264;5.468;2023-03-08T01:44:54;0.90;99.90
13462;DHT22;6803;45.264;5.468;2023-03-08T01:47:27;0.80;99.90
13462;DHT22;6803;45.264;5.468;2023-03-08T01:50:02;0.80;99.90
13462;DHT22;6803;45.264;5.468;2023-03-08T01:52:34;0.80;99.90
13462;DHT22;6803;45.264;5.468;2023-03-08T01:55:09;1.00;99.90
13462;DHT22;6803;45.264;5.468;2023-03-08T01:57:43;1.40;99.90
13462;DHT22;6803;45.264;5.468;2023-03-08T02:00:18;1.70;99.90
13462;DHT22;6803;45.264;5.468;2023-03-08T02:02:53;1.40;99.90
13462;DHT22;6803;45.264;5.468;2023-03-08T02:05:26;1.30;99.90
13462;DHT22;6803;45.264;5.468;2023-03-08T02:07:57;1.20;99.90
13462;DHT22;6803;45.264;5.468;2023-03-08T02:10:29;0.90;99.90
13462;DHT22;6803;45.264;5.468;2023-03-08T02:13:01;0.80;99.90
13462;DHT22;6803;45.264;5.468;2023-03-08T02:15:32;1.00;99.90
13462;DHT22;6803;45.264;5.468;2023-03-08T02:18:04;1.10;99.90
13462;DHT22;6803;45.264;5.468;2023-03-08T02:20:37;1.10;99.90
13462;DHT22;6803;45.264;5.468;2023-03-08T02:23:11;1.50;99.90
13462;DHT22;6803;45.264;5.468;2023-03-08T02:25:47;1.40;99.90
13462;DHT22;6803;45.264;5.468;2023-03-08T02:28:15;1.00;99.90
13462;DHT22;6803;45.264;5.468;2023-03-08T02:30:47;1.30;99.90
13462;DHT22;6803;45.264;5.468;2023-03-08T02:33:19;1.60;99.90
13462;DHT22;6803;45.264;5.468;2023-03-08T02:35:50;1.80;99.90
13462;DHT22;6803;45.264;5.468;2023-03-08T02:38:22;1.70;99.90
13462;DHT22;6803;45.264;5.468;2023-03-08T02:40:53;1.40;99.90
13462;DHT22;6803;45.264;5.468;2023-03-08T02:43:25;1.10;99.90
13462;DHT22;6803;45.264;5.468;2023-03-08T02:45:56;0.90;99.90
13462;DHT22;6803;45.264;5.468;2023-03-08T02:48:27;0.80;99.90
13462;DHT22;6803;45.264;5.468;2023-03-08T02:50:59;0.70;99.90
13462;DHT22;6803;45.264;5.468;2023-03-08T02:53:30;0.70;99.90
13462;DHT22;6803;45.264;5.468;2023-03-08T02:56:02;0.80;99.90
13462;DHT22;6803;45.264;5.468;2023-03-08T02:58:33;0.90;99.90
13462;DHT22;6803;45.264;5.468;2023-03-08T03:01:08;0.90;99.90
13462;DHT22;6803;45.264;5.468;2023-03-08T03:03:37;1.00;99.90
13462;DHT22;6803;45.264;5.468;2023-03-08T03:06:14;1.20;99.90
13462;DHT22;6803;45.264;5.468;2023-03-08T03:08:46;1.10;99.90
13462;DHT22;6803;45.264;5.468;2023-03-08T03:11:19;1.00;99.90
13462;DHT22;6803;45.264;5.468;2023-03-08T03:13:56;0.90;99.90
13462;DHT22;6803;45.264;5.468;2023-03-08T03:16:28;1.00;99.90
13462;DHT22;6803;45.264;5.468;2023-03-08T03:18:59;1.10;99.90
13462;DHT22;6803;45.264;5.468;2023-03-08T03:21:30;1.10;99.90
13462;DHT22;6803;45.264;5.468;2023-03-08T03:24:02;1.20;99.90
13462;DHT22;6803;45.264;5.468;2023-03-08T03:26:33;1.40;99.90
13462;DHT22;6803;45.264;5.468;2023-03-08T03:29:05;1.60;99.90
13462;DHT22;6803;45.264;5.468;2023-03-08T03:31:36;1.70;99.90
13462;DHT22;6803;45.264;5.468;2023-03-08T03:34:07;1.70;99.90
13462;DHT22;6803;45.264;5.468;2023-03-08T03:36:38;1.80;99.90
13462;DHT22;6803;45.264;5.468;2023-03-08T03:39:10;2.00;99.90
13462;DHT22;6803;45.264;5.468;2023-03-08T03:41:41;2.20;99.90
13462;DHT22;6803;45.264;5.468;2023-03-08T03:44:12;2.20;99.90
13462;DHT22;6803;45.264;5.468;2023-03-08T03:46:44;2.30;99.90
13462;DHT22;6803;45.264;5.468;2023-03-08T03:49:15;2.40;99.90
13462;DHT22;6803;45.264;5.468;2023-03-08T03:51:46;2.30;99.90
13462;DHT22;6803;45.264;5.468;2023-03-08T03:54:17;2.20;99.90
13462;DHT22;6803;45.264;5.468;2023-03-08T03:56:49;2.10;99.90
13462;DHT22;6803;45.264;5.468;2023-03-08T03:59:20;2.20;99.90
13462;DHT22;6803;45.264;5.468;2023-03-08T04:01:53;2.30;99.90
13462;DHT22;6803;45.264;5.468;2023-03-08T04:04:24;2.50;99.90
13462;DHT22;6803;45.264;5.468;2023-03-08T04:06:55;2.70;99.90
13462;DHT22;6803;45.264;5.468;2023-03-08T04:09:27;2.80;99.90
13462;DHT22;6803;45.264;5.468;2023-03-08T04:11:58;2.70;99.90
13462;DHT22;6803;45.264;5.468;2023-03-08T04:14:31;2.70;99.90
13462;DHT22;6803;45.264;5.468;2023-03-08T04:17:03;2.70;99.90
13462;DHT22;6803;45.264;5.468;2023-03-08T04:19:34;2.30;99.90
13462;DHT22;6803;45.264;5.468;2023-03-08T04:22:06;2.20;99.90
13462;DHT22;6803;45.264;5.468;2023-03-08T04:24:37;2.40;99.90
13462;DHT22;6803;45.264;5.468;2023-03-08T04:27:10;2.50;99.90
13462;DHT22;6803;45.264;5.468;2023-03-08T04:29:41;2.70;99.90
13462;DHT22;6803;45.264;5.468;2023-03-08T04:32:12;2.70;99.90
13462;DHT22;6803;45.264;5.468;2023-03-08T04:34:43;2.70;99.90
13462;DHT22;6803;45.264;5.468;2023-03-08T04:37:15;2.70;99.90
13462;DHT22;6803;45.264;5.468;2023-03-08T04:39:48;2.80;99.90
13462;DHT22;6803;45.264;5.468;2023-03-08T04:42:19;2.90;99.90
13462;DHT22;6803;45.264;5.468;2023-03-08T04:44:50;3.00;99.90
13462;DHT22;6803;45.264;5.468;2023-03-08T04:47:22;2.90;99.90
13462;DHT22;6803;45.264;5.468;2023-03-08T04:49:53;2.90;99.90
13462;DHT22;6803;45.264;5.468;2023-03-08T04:52:24;2.90;99.90
13462;DHT22;6803;45.264;5.468;2023-03-08T04:54:55;2.80;99.90
13462;DHT22;6803;45.264;5.468;2023-03-08T04:57:27;2.70;99.90
13462;DHT22;6803;45.264;5.468;2023-03-08T04:59:58;2.80;99.90
13462;DHT22;6803;45.264;5.468;2023-03-08T05:02:30;2.80;99.90
13462;DHT22;6803;45.264;5.468;2023-03-08T05:05:02;2.70;99.90
13462;DHT22;6803;45.264;5.468;2023-03-08T05:07:33;2.50;99.90
13462;DHT22;6803;45.264;5.468;2023-03-08T05:10:06;2.50;99.90
13462;DHT22;6803;45.264;5.468;2023-03-08T05:12:37;2.40;99.90
13462;DHT22;6803;45.264;5.468;2023-03-08T05:15:10;2.30;99.90
13462;DHT22;6803;45.264;5.468;2023-03-08T05:17:42;2.20;99.90
13462;DHT22;6803;45.264;5.468;2023-03-08T05:20:14;2.30;99.90
13462;DHT22;6803;45.264;5.468;2023-03-08T05:22:45;2.60;99.90
13462;DHT22;6803;45.264;5.468;2023-03-08T05:25:18;2.70;99.90
13462;DHT22;6803;45.264;5.468;2023-03-08T05:27:49;2.80;99.90
13462;DHT22;6803;45.264;5.468;2023-03-08T05:30:21;2.70;99.90
13462;DHT22;6803;45.264;5.468;2023-03-08T05:32:52;2.50;99.90
13462;DHT22;6803;45.264;5.468;2023-03-08T05:35:24;2.40;99.90
13462;DHT22;6803;45.264;5.468;2023-03-08T05:37:55;2.30;99.90
13462;DHT22;6803;45.264;5.468;2023-03-08T05:40:26;2.30;99.90
13462;DHT22;6803;45.264;5.468;2023-03-08T05:42:58;2.30;99.90
13462;DHT22;6803;45.264;5.468;2023-03-08T05:45:29;2.40;99.90
13462;DHT22;6803;45.264;5.468;2023-03-08T05:48:01;2.50;99.90
13462;DHT22;6803;45.264;5.468;2023-03-08T05:50:32;2.50;99.90
13462;DHT22;6803;45.264;5.468;2023-03-08T05:53:04;2.60;99.90
13462;DHT22;6803;45.264;5.468;2023-03-08T05:55:35;2.60;99.90
13462;DHT22;6803;45.264;5.468;2023-03-08T05:58:07;2.70;99.90
13462;DHT22;6803;45.264;5.468;2023-03-08T06:00:38;2.70;99.90
13462;DHT22;6803;45.264;5.468;2023-03-08T06:05:47;2.80;99.90
13462;DHT22;6803;45.264;5.468;2023-03-08T06:08:18;2.80;99.90
13462;DHT22;6803;45.264;5.468;2023-03-08T06:10:52;2.80;99.90
13462;DHT22;6803;45.264;5.468;2023-03-08T06:13:23;2.60;99.90
13462;DHT22;6803;45.264;5.468;2023-03-08T06:15:56;2.60;99.90
13462;DHT22;6803;45.264;5.468;2023-03-08T06:18:28;2.60;99.90
13462;DHT22;6803;45.264;5.468;2023-03-08T06:21:00;2.60;99.90
13462;DHT22;6803;45.264;5.468;2023-03-08T06:23:33;2.70;99.90
13462;DHT22;6803;45.264;5.468;2023-03-08T06:26:06;2.70;99.90
13462;DHT22;6803;45.264;5.468;2023-03-08T06:28:38;2.80;99.90
13462;DHT22;6803;45.264;5.468;2023-03-08T06:31:11;2.80;99.90
13462;DHT22;6803;45.264;5.468;2023-03-08T06:36:22;2.80;99.90
13462;DHT22;6803;45.264;5.468;2023-03-08T06:38:53;2.80;99.90
13462;DHT22;6803;45.264;5.468;2023-03-08T06:41:24;2.90;99.90
13462;DHT22;6803;45.264;5.468;2023-03-08T06:43:55;3.00;99.90
13462;DHT22;6803;45.264;5.468;2023-03-08T06:46:27;2.90;99.90
13462;DHT22;6803;45.264;5.468;2023-03-08T06:49:00;2.90;99.90
13462;DHT22;6803;45.264;5.468;2023-03-08T06:51:32;3.00;99.90
13462;DHT22;6803;45.264;5.468;2023-03-08T06:54:03;3.00;99.90
13462;DHT22;6803;45.264;5.468;2023-03-08T06:56:34;3.00;99.90
13462;DHT22;6803;45.264;5.468;2023-03-08T06:59:06;3.00;99.90
13462;DHT22;6803;45.264;5.468;2023-03-08T07:01:37;3.10;99.90
13462;DHT22;6803;45.264;5.468;2023-03-08T07:04:09;3.10;99.90
13462;DHT22;6803;45.264;5.468;2023-03-08T07:06:40;3.10;99.90
13462;DHT22;6803;45.264;5.468;2023-03-08T07:09:11;3.30;99.90
13462;DHT22;6803;45.264;5.468;2023-03-08T07:11:43;3.40;99.90
13462;DHT22;6803;45.264;5.468;2023-03-08T07:14:14;3.40;99.90
13462;DHT22;6803;45.264;5.468;2023-03-08T07:16:46;3.50;99.90
13462;DHT22;6803;45.264;5.468;2023-03-08T07:19:17;3.50;99.90
13462;DHT22;6803;45.264;5.468;2023-03-08T07:21:48;3.50;99.90
13462;DHT22;6803;45.264;5.468;2023-03-08T07:24:20;3.60;99.90
13462;DHT22;6803;45.264;5.468;2023-03-08T07:26:51;3.70;99.90
13462;DHT22;6803;45.264;5.468;2023-03-08T07:29:22;3.80;99.90
13462;DHT22;6803;45.264;5.468;2023-03-08T07:31:54;3.70;99.90
13462;DHT22;6803;45.264;5.468;2023-03-08T07:34:25;3.70;99.90
13462;DHT22;6803;45.264;5.468;2023-03-08T07:39:37;3.70;99.90
13462;DHT22;6803;45.264;5.468;2023-03-08T07:42:09;3.80;99.90
13462;DHT22;6803;45.264;5.468;2023-03-08T07:44:41;3.90;99.90
13462;DHT22;6803;45.264;5.468;2023-03-08T07:47:12;4.00;99.90
13462;DHT22;6803;45.264;5.468;2023-03-08T07:49:43;4.10;99.90
13462;DHT22;6803;45.264;5.468;2023-03-08T07:52:14;4.10;99.90
13462;DHT22;6803;45.264;5.468;2023-03-08T07:54:46;4.20;99.90
13462;DHT22;6803;45.264;5.468;2023-03-08T07:57:17;4.30;99.90
13462;DHT22;6803;45.264;5.468;2023-03-08T07:59:49;4.40;99.90
13462;DHT22;6803;45.264;5.468;2023-03-08T08:02:22;4.40;99.90
13462;DHT22;6803;45.264;5.468;2023-03-08T08:04:53;4.50;99.90
13462;DHT22;6803;45.264;5.468;2023-03-08T08:07:25;4.50;99.90
13462;DHT22;6803;45.264;5.468;2023-03-08T08:09:56;4.50;99.90
13462;DHT22;6803;45.264;5.468;2023-03-08T08:12:27;4.50;99.90
13462;DHT22;6803;45.264;5.468;2023-03-08T08:14:59;4.60;99.90
13462;DHT22;6803;45.264;5.468;2023-03-08T08:17:30;4.60;99.90
13462;DHT22;6803;45.264;5.468;2023-03-08T08:20:01;4.70;99.90
13462;DHT22;6803;45.264;5.468;2023-03-08T08:22:36;4.80;99.90
13462;DHT22;6803;45.264;5.468;2023-03-08T08:25:09;4.90;99.90
13462;DHT22;6803;45.264;5.468;2023-03-08T08:27:41;5.00;99.90
13462;DHT22;6803;45.264;5.468;2023-03-08T08:30:14;5.00;99.90
13462;DHT22;6803;45.264;5.468;2023-03-08T08:32:46;5.00;99.90
13462;DHT22;6803;45.264;5.468;2023-03-08T08:35:17;5.10;99.90
13462;DHT22;6803;45.264;5.468;2023-03-08T08:37:48;5.00;99.90
13462;DHT22;6803;45.264;5.468;2023-03-08T08:40:20;5.10;99.90
13462;DHT22;6803;45.264;5.468;2023-03-08T08:42:51;5.20;99.90
13462;DHT22;6803;45.264;5.468;2023-03-08T08:45:22;5.20;99.90
13462;DHT22;6803;45.264;5.468;2023-03-08T08:47:53;5.20;99.90
13462;DHT22;6803;45.264;5.468;2023-03-08T08:50:23;5.20;99.90
13462;DHT22;6803;45.264;5.468;2023-03-08T08:52:56;5.30;99.90
13462;DHT22;6803;45.264;5.468;2023-03-08T08:55:27;5.40;99.90
13462;DHT22;6803;45.264;5.468;2023-03-08T08:57:58;5.60;99.90
13462;DHT22;6803;45.264;5.468;2023-03-08T09:00:29;5.70;99.90
13462;DHT22;6803;45.264;5.468;2023-03-08T09:03:01;5.80;99.90
13462;DHT22;6803;45.264;5.468;2023-03-08T09:05:36;5.90;99.90
13462;DHT22;6803;45.264;5.468;2023-03-08T09:08:07;6.00;99.90
13462;DHT22;6803;45.264;5.468;2023-03-08T09:10:39;6.20;99.90
13462;DHT22;6803;45.264;5.468;2023-03-08T09:13:11;6.50;99.90
13462;DHT22;6803;45.264;5.468;2023-03-08T09:15:42;6.80;99.90
13462;DHT22;6803;45.264;5.468;2023-03-08T09:18:14;6.90;99.90
13462;DHT22;6803;45.264;5.468;2023-03-08T09:20:45;7.00;99.90
13462;DHT22;6803;45.264;5.468;2023-03-08T09:23:16;7.30;99.90
13462;DHT22;6803;45.264;5.468;2023-03-08T09:25:55;7.60;99.90
13462;DHT22;6803;45.264;5.468;2023-03-08T09:28:28;7.60;99.90
13462;DHT22;6803;45.264;5.468;2023-03-08T09:30:59;7.70;99.90
13462;DHT22;6803;45.264;5.468;2023-03-08T09:33:32;7.60;99.90
13462;DHT22;6803;45.264;5.468;2023-03-08T09:36:05;7.40;99.90
13462;DHT22;6803;45.264;5.468;2023-03-08T09:38:37;7.50;99.90
13462;DHT22;6803;45.264;5.468;2023-03-08T09:41:23;7.60;99.90
13462;DHT22;6803;45.264;5.468;2023-03-08T09:44:03;7.60;99.90
13462;DHT22;6803;45.264;5.468;2023-03-08T09:46:37;7.60;99.90
13462;DHT22;6803;45.264;5.468;2023-03-08T09:49:13;7.90;99.90
13462;DHT22;6803;45.264;5.468;2023-03-08T09:51:46;8.10;99.90
13462;DHT22;6803;45.264;5.468;2023-03-08T09:54:22;8.30;99.90
13462;DHT22;6803;45.264;5.468;2023-03-08T09:56:54;8.30;99.90
13462;DHT22;6803;45.264;5.468;2023-03-08T09:59:29;8.10;99.90
13462;DHT22;6803;45.264;5.468;2023-03-08T10:04:46;8.10;99.90
13462;DHT22;6803;45.264;5.468;2023-03-08T10:10:16;8.00;99.90
13462;DHT22;6803;45.264;5.468;2023-03-08T10:12:55;8.00;99.90
13462;DHT22;6803;45.264;5.468;2023-03-08T10:15:28;7.90;99.90
13462;DHT22;6803;45.264;5.468;2023-03-08T10:18:03;8.00;99.90
13462;DHT22;6803;45.264;5.468;2023-03-08T10:20:36;8.10;99.90
13462;DHT22;6803;45.264;5.468;2023-03-08T10:23:13;8.40;99.90
13462;DHT22;6803;45.264;5.468;2023-03-08T10:25:45;8.60;99.90
13462;DHT22;6803;45.264;5.468;2023-03-08T10:28:19;8.80;99.90
13462;DHT22;6803;45.264;5.468;2023-03-08T10:30:52;9.00;99.90
13462;DHT22;6803;45.264;5.468;2023-03-08T10:33:28;9.10;99.90
13462;DHT22;6803;45.264;5.468;2023-03-08T10:35:59;9.00;99.90
13462;DHT22;6803;45.264;5.468;2023-03-08T10:38:33;8.70;99.90
13462;DHT22;6803;45.264;5.468;2023-03-08T10:41:11;8.70;99.90
13462;DHT22;6803;45.264;5.468;2023-03-08T10:44:01;8.80;99.90
13462;DHT22;6803;45.264;5.468;2023-03-08T10:46:32;8.80;99.90
13462;DHT22;6803;45.264;5.468;2023-03-08T10:49:14;9.00;99.90
13462;DHT22;6803;45.264;5.468;2023-03-08T10:51:56;9.10;99.90
13462;DHT22;6803;45.264;5.468;2023-03-08T10:54:29;9.20;99.90
13462;DHT22;6803;45.264;5.468;2023-03-08T10:57:01;9.30;99.90
13462;DHT22;6803;45.264;5.468;2023-03-08T10:59:34;9.40;99.90
13462;DHT22;6803;45.264;5.468;2023-03-08T11:02:16;9.20;99.90
13462;DHT22;6803;45.264;5.468;2023-03-08T11:04:54;9.10;99.90
13462;DHT22;6803;45.264;5.468;2023-03-08T11:07:28;9.00;99.90
13462;DHT22;6803;45.264;5.468;2023-03-08T11:10:18;8.90;99.90
13462;DHT22;6803;45.264;5.468;2023-03-08T11:12:50;8.70;99.90
13462;DHT22;6803;45.264;5.468;2023-03-08T11:15:22;8.80;99.90
13462;DHT22;6803;45.264;5.468;2023-03-08T11:17:56;8.90;99.90
13462;DHT22;6803;45.264;5.468;2023-03-08T11:20:30;8.80;99.90
13462;DHT22;6803;45.264;5.468;2023-03-08T11:23:11;8.80;99.90
13462;DHT22;6803;45.264;5.468;2023-03-08T11:25:45;8.70;99.90
13462;DHT22;6803;45.264;5.468;2023-03-08T11:28:31;8.80;99.90
13462;DHT22;6803;45.264;5.468;2023-03-08T11:31:20;8.60;99.90
13462;DHT22;6803;45.264;5.468;2023-03-08T11:39:41;8.30;99.90
13462;DHT22;6803;45.264;5.468;2023-03-08T11:42:18;8.30;99.90
13462;DHT22;6803;45.264;5.468;2023-03-08T11:45:10;8.20;99.90
13462;DHT22;6803;45.264;5.468;2023-03-08T11:48:00;8.20;99.90
13462;DHT22;6803;45.264;5.468;2023-03-08T11:50:35;8.30;99.90
13462;DHT22;6803;45.264;5.468;2023-03-08T11:53:16;8.20;99.90
13462;DHT22;6803;45.264;5.468;2023-03-08T11:58:59;8.10;99.90
13462;DHT22;6803;45.264;5.468;2023-03-08T12:01:34;8.10;99.90
13462;DHT22;6803;45.264;5.468;2023-03-08T12:04:06;8.10;99.90
13462;DHT22;6803;45.264;5.468;2023-03-08T12:06:40;8.00;99.90
13462;DHT22;6803;45.264;5.468;2023-03-08T12:09:17;8.00;99.90
13462;DHT22;6803;45.264;5.468;2023-03-08T12:11:52;8.10;99.90
13462;DHT22;6803;45.264;5.468;2023-03-08T12:14:26;8.20;99.90
13462;DHT22;6803;45.264;5.468;2023-03-08T12:17:05;8.20;99.90
13462;DHT22;6803;45.264;5.468;2023-03-08T12:19:41;8.20;99.90
13462;DHT22;6803;45.264;5.468;2023-03-08T12:22:24;8.20;99.90
13462;DHT22;6803;45.264;5.468;2023-03-08T12:24:59;8.20;99.90
13462;DHT22;6803;45.264;5.468;2023-03-08T12:27:34;8.30;99.90
13462;DHT22;6803;45.264;5.468;2023-03-08T12:30:12;8.20;99.90
13462;DHT22;6803;45.264;5.468;2023-03-08T12:32:44;8.10;99.90
13462;DHT22;6803;45.264;5.468;2023-03-08T12:35:28;7.90;99.90
13462;DHT22;6803;45.264;5.468;2023-03-08T12:38:02;7.80;99.90
13462;DHT22;6803;45.264;5.468;2023-03-08T12:40:40;7.60;99.90
13462;DHT22;6803;45.264;5.468;2023-03-08T12:46:03;7.70;99.90
13462;DHT22;6803;45.264;5.468;2023-03-08T12:48:37;7.80;99.90
13462;DHT22;6803;45.264;5.468;2023-03-08T12:51:19;7.90;99.90
13462;DHT22;6803;45.264;5.468;2023-03-08T12:53:58;8.00;99.90
13462;DHT22;6803;45.264;5.468;2023-03-08T12:56:32;8.10;99.90
13462;DHT22;6803;45.264;5.468;2023-03-08T12:59:24;8.10;99.90
13462;DHT22;6803;45.264;5.468;2023-03-08T13:02:02;8.20;99.90
13462;DHT22;6803;45.264;5.468;2023-03-08T13:04:36;8.20;99.90
13462;DHT22;6803;45.264;5.468;2023-03-08T13:07:18;8.20;99.90
13462;DHT22;6803;45.264;5.468;2023-03-08T13:09:58;8.20;99.90
13462;DHT22;6803;45.264;5.468;2023-03-08T13:12:38;8.10;99.90
13462;DHT22;6803;45.264;5.468;2023-03-08T13:15:23;8.20;99.90
13462;DHT22;6803;45.264;5.468;2023-03-08T13:18:01;8.10;99.90
13462;DHT22;6803;45.264;5.468;2023-03-08T13:20:50;8.20;99.90
13462;DHT22;6803;45.264;5.468;2023-03-08T13:23:27;8.20;99.90
13462;DHT22;6803;45.264;5.468;2023-03-08T13:26:09;8.20;99.90
13462;DHT22;6803;45.264;5.468;2023-03-08T13:28:40;8.20;99.90
13462;DHT22;6803;45.264;5.468;2023-03-08T13:31:15;8.20;99.90
13462;DHT22;6803;45.264;5.468;2023-03-08T13:33:49;8.30;99.90
13462;DHT22;6803;45.264;5.468;2023-03-08T13:36:22;8.30;99.90
13462;DHT22;6803;45.264;5.468;2023-03-08T13:39:02;8.30;99.90
13462;DHT22;6803;45.264;5.468;2023-03-08T13:41:36;8.30;99.90
13462;DHT22;6803;45.264;5.468;2023-03-08T13:44:14;8.30;99.90
13462;DHT22;6803;45.264;5.468;2023-03-08T13:46:47;8.50;99.90
13462;DHT22;6803;45.264;5.468;2023-03-08T13:49:22;8.70;99.90
13462;DHT22;6803;45.264;5.468;2023-03-08T13:51:55;8.80;99.90
13462;DHT22;6803;45.264;5.468;2023-03-08T13:54:29;8.90;99.90
13462;DHT22;6803;45.264;5.468;2023-03-08T13:57:02;8.90;99.90
13462;DHT22;6803;45.264;5.468;2023-03-08T13:59:34;8.90;99.90
13462;DHT22;6803;45.264;5.468;2023-03-08T14:02:18;8.90;99.90
13462;DHT22;6803;45.264;5.468;2023-03-08T14:04:50;8.90;99.90
13462;DHT22;6803;45.264;5.468;2023-03-08T14:07:23;8.80;99.90
13462;DHT22;6803;45.264;5.468;2023-03-08T14:09:55;8.80;99.90
13462;DHT22;6803;45.264;5.468;2023-03-08T14:12:28;8.80;99.90
13462;DHT22;6803;45.264;5.468;2023-03-08T14:15:02;8.90;99.90
13462;DHT22;6803;45.264;5.468;2023-03-08T14:17:34;8.90;99.90
13462;DHT22;6803;45.264;5.468;2023-03-08T14:20:15;8.80;99.90
13462;DHT22;6803;45.264;5.468;2023-03-08T14:22:48;8.80;99.90
13462;DHT22;6803;45.264;5.468;2023-03-08T14:25:26;8.60;99.90
13462;DHT22;6803;45.264;5.468;2023-03-08T14:27:58;8.40;99.90
13462;DHT22;6803;45.264;5.468;2023-03-08T14:30:29;8.30;99.90
13462;DHT22;6803;45.264;5.468;2023-03-08T14:33:16;8.40;99.90
13462;DHT22;6803;45.264;5.468;2023-03-08T14:35:39;8.40;99.90
13462;DHT22;6803;45.264;5.468;2023-03-08T14:38:18;8.40;99.90
13462;DHT22;6803;45.264;5.468;2023-03-08T14:40:49;8.40;99.90
13462;DHT22;6803;45.264;5.468;2023-03-08T14:43:22;8.40;99.90
13462;DHT22;6803;45.264;5.468;2023-03-08T14:45:55;8.40;99.90
13462;DHT22;6803;45.264;5.468;2023-03-08T14:48:29;8.40;99.90
13462;DHT22;6803;45.264;5.468;2023-03-08T14:51:02;8.50;99.90
13462;DHT22;6803;45.264;5.468;2023-03-08T14:53:35;8.40;99.90
13462;DHT22;6803;45.264;5.468;2023-03-08T14:56:10;8.40;99.90
13462;DHT22;6803;45.264;5.468;2023-03-08T14:58:43;8.60;99.90
13462;DHT22;6803;45.264;5.468;2023-03-08T15:01:25;8.70;99.90
13462;DHT22;6803;45.264;5.468;2023-03-08T15:03:57;8.80;99.90
13462;DHT22;6803;45.264;5.468;2023-03-08T15:06:29;8.70;99.90
13462;DHT22;6803;45.264;5.468;2023-03-08T15:09:02;8.70;99.90
13462;DHT22;6803;45.264;5.468;2023-03-08T15:11:34;8.70;99.90
13462;DHT22;6803;45.264;5.468;2023-03-08T15:14:07;8.60;99.90
13462;DHT22;6803;45.264;5.468;2023-03-08T15:16:38;8.70;99.90
13462;DHT22;6803;45.264;5.468;2023-03-08T15:19:09;8.70;99.90
13462;DHT22;6803;45.264;5.468;2023-03-08T15:21:42;8.70;99.90
13462;DHT22;6803;45.264;5.468;2023-03-08T15:24:16;8.70;99.90
13462;DHT22;6803;45.264;5.468;2023-03-08T15:26:47;8.60;99.90
13462;DHT22;6803;45.264;5.468;2023-03-08T15:29:26;8.60;99.90
13462;DHT22;6803;45.264;5.468;2023-03-08T15:31:58;8.60;99.90
13462;DHT22;6803;45.264;5.468;2023-03-08T15:34:29;8.60;99.90
13462;DHT22;6803;45.264;5.468;2023-03-08T15:37:01;8.60;99.90
13462;DHT22;6803;45.264;5.468;2023-03-08T15:39:33;8.60;99.90
13462;DHT22;6803;45.264;5.468;2023-03-08T15:42:05;8.70;99.90
13462;DHT22;6803;45.264;5.468;2023-03-08T15:44:36;8.70;99.90
13462;DHT22;6803;45.264;5.468;2023-03-08T15:47:09;8.70;99.90
13462;DHT22;6803;45.264;5.468;2023-03-08T15:49:39;8.70;99.90
13462;DHT22;6803;45.264;5.468;2023-03-08T15:52:11;8.80;99.90
13462;DHT22;6803;45.264;5.468;2023-03-08T15:54:42;8.80;99.90
13462;DHT22;6803;45.264;5.468;2023-03-08T15:57:15;8.80;99.90
13462;DHT22;6803;45.264;5.468;2023-03-08T15:59:45;8.80;99.90
13462;DHT22;6803;45.264;5.468;2023-03-08T16:02:18;8.90;99.90
13462;DHT22;6803;45.264;5.468;2023-03-08T16:04:49;9.00;99.90
13462;DHT22;6803;45.264;5.468;2023-03-08T16:07:22;9.10;99.90
13462;DHT22;6803;45.264;5.468;2023-03-08T16:09:53;9.10;99.90
13462;DHT22;6803;45.264;5.468;2023-03-08T16:12:24;9.10;99.90
13462;DHT22;6803;45.264;5.468;2023-03-08T16:14:55;9.10;99.90
13462;DHT22;6803;45.264;5.468;2023-03-08T16:17:28;9.10;99.90
13462;DHT22;6803;45.264;5.468;2023-03-08T16:19:59;9.00;99.90
13462;DHT22;6803;45.264;5.468;2023-03-08T16:22:30;9.00;99.90
13462;DHT22;6803;45.264;5.468;2023-03-08T16:25:01;9.00;99.90
13462;DHT22;6803;45.264;5.468;2023-03-08T16:27:33;9.00;99.90
13462;DHT22;6803;45.264;5.468;2023-03-08T16:30:11;9.00;99.90
13462;DHT22;6803;45.264;5.468;2023-03-08T16:32:41;9.00;99.90
13462;DHT22;6803;45.264;5.468;2023-03-08T16:35:12;9.00;99.90
13462;DHT22;6803;45.264;5.468;2023-03-08T16:37:43;9.00;99.90
13462;DHT22;6803;45.264;5.468;2023-03-08T16:40:14;9.00;99.90
13462;DHT22;6803;45.264;5.468;2023-03-08T16:42:45;9.00;99.90
13462;DHT22;6803;45.264;5.468;2023-03-08T16:45:16;8.90;99.90
13462;DHT22;6803;45.264;5.468;2023-03-08T16:47:47;8.90;99.90
13462;DHT22;6803;45.264;5.468;2023-03-08T16:50:18;8.90;99.90
13462;DHT22;6803;45.264;5.468;2023-03-08T16:52:53;8.80;99.90
13462;DHT22;6803;45.264;5.468;2023-03-08T16:55:24;8.90;99.90
13462;DHT22;6803;45.264;5.468;2023-03-08T16:57:55;8.80;99.90
13462;DHT22;6803;45.264;5.468;2023-03-08T17:00:26;8.70;99.90
13462;DHT22;6803;45.264;5.468;2023-03-08T17:02:57;8.80;99.90
13462;DHT22;6803;45.264;5.468;2023-03-08T17:05:29;8.80;99.90